createdAt,value
2019-04-07T00:00:15.281Z,18.50
2019-04-07T00:01:15.765Z,17.70
2019-04-07T00:02:15.449Z,18.60
2019-04-07T00:03:15.066Z,19.30
2019-04-07T00:04:15.064Z,18.50
2019-04-07T00:05:15.064Z,19.10
2019-04-07T00:06:15.646Z,18.90
2019-04-07T00:07:15.016Z,19.40
2019-04-07T00:08:15.143Z,20.20
2019-04-07T00:09:15.373Z,19.70
2019-04-07T00:10:15.502Z,17.90
2019-04-07T00:11:15.097Z,19.70
2019-04-07T00:12:15.084Z,17.40
2019-04-07T00:13:14.959Z,18.40
2019-04-07T00:14:14.944Z,17.00
2019-04-07T00:15:15.518Z,24.00
2019-04-07T00:16:14.971Z,20.80
2019-04-07T00:17:14.975Z,20.10
2019-04-07T00:18:14.915Z,19.80
2019-04-07T00:19:15.569Z,17.70
2019-04-07T00:20:14.986Z,24.60
2019-04-07T00:21:15.252Z,18.60
2019-04-07T00:22:15.376Z,21.70
2019-04-07T00:23:14.850Z,20.70
2019-04-07T00:24:14.955Z,18.60
2019-04-07T00:25:14.827Z,21.20
2019-04-07T00:26:14.833Z,20.80
2019-04-07T00:27:14.806Z,19.80
2019-04-07T00:28:14.802Z,21.10
2019-04-07T00:29:14.824Z,21.70
2019-04-07T00:30:15.526Z,23.80
2019-04-07T00:31:23.060Z,19.00
2019-04-07T00:32:14.750Z,19.70
2019-04-07T00:33:14.752Z,20.90
2019-04-07T00:34:14.736Z,22.70
2019-04-07T00:35:23.235Z,21.50
2019-04-07T00:36:15.748Z,20.10
2019-04-07T00:37:15.527Z,22.80
2019-04-07T00:38:15.052Z,19.20
2019-04-07T00:39:14.856Z,18.70
2019-04-07T00:40:14.744Z,20.20
2019-04-07T00:41:14.673Z,20.20
2019-04-07T00:42:14.745Z,21.90
2019-04-07T00:43:15.318Z,19.70
2019-04-07T00:44:14.682Z,19.40
2019-04-07T00:45:15.079Z,19.70
2019-04-07T00:46:14.621Z,23.50
2019-04-07T00:47:15.244Z,21.20
2019-04-07T00:48:14.580Z,19.30
2019-04-07T00:49:14.877Z,20.30
2019-04-07T00:50:15.263Z,20.10
2019-04-07T00:51:14.569Z,19.90
2019-04-07T00:52:14.560Z,19.40
2019-04-07T00:53:14.607Z,18.30
2019-04-07T00:54:15.114Z,20.10
2019-04-07T00:55:14.506Z,22.80
2019-04-07T00:56:14.647Z,18.60
2019-04-07T00:57:14.842Z,21.00
2019-04-07T00:58:14.858Z,22.30
2019-04-07T00:59:14.496Z,22.80
2019-04-07T01:00:16.589Z,22.10
2019-04-07T01:01:14.449Z,19.60
2019-04-07T01:02:14.473Z,19.50
2019-04-07T01:03:14.840Z,20.20
2019-04-07T01:04:14.427Z,20.30
2019-04-07T01:05:14.788Z,22.60
2019-04-07T01:06:14.393Z,19.90
2019-04-07T01:07:14.522Z,20.60
2019-04-07T01:08:15.461Z,23.90
2019-04-07T01:09:14.543Z,18.90
2019-04-07T01:10:14.363Z,23.20
2019-04-07T01:11:14.367Z,20.80
2019-04-07T01:12:14.904Z,22.00
2019-04-07T01:13:14.453Z,20.50
2019-04-07T01:14:14.311Z,21.00
2019-04-07T01:15:14.310Z,21.70
2019-04-07T01:16:14.652Z,19.10
2019-04-07T01:17:14.945Z,21.80
2019-04-07T01:18:14.275Z,20.10
2019-04-07T01:19:14.674Z,20.60
2019-04-07T01:20:14.249Z,19.90
2019-04-07T01:21:14.918Z,18.30
2019-04-07T01:22:14.429Z,19.30
2019-04-07T01:23:14.301Z,19.30
2019-04-07T01:24:14.494Z,24.60
2019-04-07T01:25:14.754Z,18.50
2019-04-07T01:26:14.198Z,20.60
2019-04-07T01:27:14.662Z,22.20
2019-04-07T01:28:14.201Z,19.70
2019-04-07T01:29:14.723Z,19.90
2019-04-07T01:30:14.131Z,18.40
2019-04-07T01:31:14.377Z,21.40
2019-04-07T01:32:14.779Z,18.90
2019-04-07T01:33:14.107Z,22.40
2019-04-07T01:34:14.088Z,19.00
2019-04-07T01:35:14.619Z,20.20
2019-04-07T01:36:14.070Z,19.50
2019-04-07T01:37:14.134Z,19.60
2019-04-07T01:38:14.642Z,21.80
2019-04-07T01:39:14.114Z,20.20
2019-04-07T01:40:14.494Z,20.50
2019-04-07T01:41:14.021Z,18.80
2019-04-07T01:42:14.737Z,21.70
2019-04-07T01:43:14.035Z,21.80
2019-04-07T01:44:14.423Z,19.70
2019-04-07T01:45:13.989Z,22.50
2019-04-07T01:46:14.210Z,19.10
2019-04-07T01:47:13.948Z,19.70
2019-04-07T01:48:14.025Z,19.60
2019-04-07T01:49:13.928Z,19.50
2019-04-07T01:50:14.346Z,20.00
2019-04-07T01:51:14.526Z,19.50
2019-04-07T01:52:13.903Z,19.30
2019-04-07T01:53:13.917Z,20.40
2019-04-07T01:54:13.880Z,17.50
2019-04-07T01:55:14.577Z,20.10
2019-04-07T01:56:14.100Z,18.40
2019-04-07T01:57:14.537Z,19.30
2019-04-07T01:58:13.883Z,21.50
2019-04-07T01:59:14.427Z,18.30
2019-04-07T02:00:13.819Z,18.80
2019-04-07T02:01:14.188Z,20.80
2019-04-07T02:02:13.794Z,18.50
2019-04-07T02:03:13.841Z,19.70
2019-04-07T02:04:13.866Z,21.00
2019-04-07T02:05:14.351Z,19.80
2019-04-07T02:06:13.766Z,20.50
2019-04-07T02:07:13.734Z,19.00
2019-04-07T02:08:14.507Z,19.80
2019-04-07T02:09:13.743Z,19.80
2019-04-07T02:10:13.791Z,21.40
2019-04-07T02:11:13.726Z,21.20
2019-04-07T02:12:13.681Z,18.50
2019-04-07T02:13:13.712Z,25.10
2019-04-07T02:14:13.797Z,19.70
2019-04-07T02:15:13.880Z,18.80
2019-04-07T02:16:13.638Z,22.10
2019-04-07T02:17:13.938Z,20.70
2019-04-07T02:18:13.658Z,17.60
2019-04-07T02:19:14.024Z,19.00
2019-04-07T02:20:13.588Z,24.40
2019-04-07T02:21:14.267Z,23.30
2019-04-07T02:22:13.588Z,21.00
2019-04-07T02:23:13.587Z,18.30
2019-04-07T02:24:13.546Z,21.90
2019-04-07T02:25:14.004Z,20.10
2019-04-07T02:26:13.652Z,20.50
2019-04-07T02:27:14.051Z,19.30
2019-04-07T02:28:13.798Z,21.30
2019-04-07T02:29:13.820Z,18.40
2019-04-07T02:30:14.503Z,18.80
2019-04-07T02:31:13.642Z,22.80
2019-04-07T02:32:13.493Z,19.80
2019-04-07T02:33:13.474Z,19.80
2019-04-07T02:34:13.592Z,19.60
2019-04-07T02:35:14.209Z,20.70
2019-04-07T02:36:21.989Z,19.00
2019-04-07T02:37:14.451Z,19.10
2019-04-07T02:38:17.088Z,20.00
2019-04-07T02:39:13.412Z,20.30
2019-04-07T02:40:13.758Z,22.50
2019-04-07T02:41:13.433Z,21.60
2019-04-07T02:42:13.374Z,20.20
2019-04-07T02:43:13.469Z,24.10
2019-04-07T02:44:13.556Z,18.30
2019-04-07T02:45:13.338Z,21.40
2019-04-07T02:46:13.349Z,20.30
2019-04-07T02:47:13.712Z,19.50
2019-04-07T02:48:13.869Z,19.00
2019-04-07T02:49:14.149Z,21.70
2019-04-07T02:50:14.091Z,20.40
2019-04-07T02:51:13.278Z,20.60
2019-04-07T02:52:13.279Z,20.10
2019-04-07T02:53:13.471Z,22.60
2019-04-07T02:54:13.581Z,19.70
2019-04-07T02:55:14.314Z,19.20
2019-04-07T02:56:13.441Z,18.60
2019-04-07T02:57:13.275Z,19.20
2019-04-07T02:58:13.657Z,17.70
2019-04-07T02:59:14.426Z,21.30
2019-04-07T03:00:13.955Z,19.40
2019-04-07T03:01:13.687Z,18.70
2019-04-07T03:02:14.205Z,19.70
2019-04-07T03:03:14.037Z,22.20
2019-04-07T03:04:13.152Z,22.40
2019-04-07T03:05:13.816Z,22.80
2019-04-07T03:06:26.189Z,18.40
2019-04-07T03:07:14.094Z,20.60
2019-04-07T03:08:13.088Z,23.00
2019-04-07T03:09:13.091Z,20.80
2019-04-07T03:10:13.119Z,21.60
2019-04-07T03:11:13.756Z,19.30
2019-04-07T03:12:13.741Z,18.20
2019-04-07T03:13:13.029Z,20.20
2019-04-07T03:14:13.057Z,24.70
2019-04-07T03:15:13.111Z,21.30
2019-04-07T03:16:13.100Z,20.40
2019-04-07T03:17:13.942Z,19.70
2019-04-07T03:18:12.986Z,18.90
2019-04-07T03:19:13.227Z,18.50
2019-04-07T03:20:12.957Z,19.20
2019-04-07T03:21:13.200Z,18.20
2019-04-07T03:22:12.935Z,24.20
2019-04-07T03:23:13.009Z,22.80
2019-04-07T03:24:12.997Z,20.20
2019-04-07T03:25:13.214Z,23.80
2019-04-07T03:26:12.897Z,22.50
2019-04-07T03:27:13.514Z,20.50
2019-04-07T03:28:12.879Z,18.70
2019-04-07T03:29:13.998Z,20.20
2019-04-07T03:30:13.783Z,19.80
2019-04-07T03:31:14.775Z,21.10
2019-04-07T03:32:17.066Z,22.20
2019-04-07T03:33:15.999Z,24.90
2019-04-07T03:34:14.467Z,22.40
2019-04-07T03:35:14.946Z,20.50
2019-04-07T03:36:17.269Z,24.20
2019-04-07T03:38:23.383Z,26.50
2019-04-07T03:39:23.308Z,26.20
2019-04-07T03:40:24.118Z,21.30
2019-04-07T03:41:23.808Z,21.20
2019-04-07T03:42:23.502Z,20.90
2019-04-07T03:43:23.903Z,19.90
2019-04-07T03:44:23.255Z,21.90
2019-04-07T03:45:23.335Z,21.20
2019-04-07T03:46:23.219Z,22.10
2019-04-07T03:47:23.486Z,22.90
2019-04-07T03:49:25.301Z,20.40
2019-04-07T03:50:23.155Z,20.40
2019-04-07T03:51:44.164Z,20.50
2019-04-07T03:52:23.131Z,20.10
2019-04-07T03:53:24.300Z,22.30
2019-04-07T03:54:24.171Z,20.40
2019-04-07T03:55:23.121Z,22.10
2019-04-07T03:56:23.231Z,22.00
2019-04-07T03:57:24.105Z,20.80
2019-04-07T03:58:23.067Z,20.50
2019-04-07T03:59:23.064Z,21.00
2019-04-07T04:00:23.212Z,22.40
2019-04-07T04:01:25.503Z,22.40
2019-04-07T04:02:23.043Z,21.30
2019-04-07T04:03:23.007Z,22.70
2019-04-07T04:04:23.004Z,19.00
2019-04-07T04:05:24.205Z,20.40
2019-04-07T04:06:23.014Z,20.80
2019-04-07T04:07:31.290Z,24.40
2019-04-07T04:08:24.531Z,20.00
2019-04-07T04:09:22.951Z,21.20
2019-04-07T04:10:23.743Z,20.80
2019-04-07T04:11:23.641Z,19.80
2019-04-07T04:12:22.951Z,22.70
2019-04-07T04:13:23.169Z,23.40
2019-04-07T04:14:23.814Z,19.30
2019-04-07T04:15:22.909Z,21.00
2019-04-07T04:16:23.344Z,24.80
2019-04-07T04:17:23.055Z,22.00
2019-04-07T04:18:22.852Z,21.90
2019-04-07T04:19:22.881Z,19.40
2019-04-07T04:20:23.918Z,19.60
2019-04-07T04:21:22.818Z,21.40
2019-04-07T04:22:23.023Z,20.70
2019-04-07T04:23:22.791Z,23.00
2019-04-07T04:24:22.971Z,22.70
2019-04-07T04:25:23.139Z,22.90
2019-04-07T04:26:23.730Z,21.70
2019-04-07T04:27:23.707Z,22.60
2019-04-07T04:28:23.708Z,22.80
2019-04-07T04:29:23.367Z,20.20
2019-04-07T04:30:22.720Z,22.80
2019-04-07T04:31:22.730Z,23.20
2019-04-07T04:32:23.156Z,21.80
2019-04-07T04:33:23.519Z,21.70
2019-04-07T04:34:22.729Z,20.80
2019-04-07T04:35:22.682Z,19.80
2019-04-07T04:36:22.683Z,23.60
2019-04-07T04:37:37.696Z,19.50
2019-04-07T04:38:24.193Z,21.30
2019-04-07T04:39:22.937Z,20.40
2019-04-07T04:40:22.618Z,23.90
2019-04-07T04:41:23.170Z,22.80
2019-04-07T04:43:23.660Z,23.90
2019-04-07T04:44:44.335Z,22.50
2019-04-07T04:45:22.554Z,24.10
2019-04-07T04:46:22.621Z,22.30
2019-04-07T04:47:23.218Z,23.20
2019-04-07T04:48:22.761Z,21.70
2019-04-07T04:49:23.278Z,20.80
2019-04-07T04:50:23.585Z,24.60
2019-04-07T04:51:22.520Z,22.20
2019-04-07T04:52:22.481Z,25.20
2019-04-07T04:53:22.706Z,20.60
2019-04-07T04:54:22.602Z,22.20
2019-04-07T04:55:22.472Z,20.70
2019-04-07T04:56:22.877Z,22.60
2019-04-07T04:57:23.109Z,22.30
2019-04-07T04:58:22.907Z,21.10
2019-04-07T04:59:22.436Z,23.80
2019-04-07T05:00:22.397Z,26.00
2019-04-07T05:01:23.024Z,22.80
2019-04-07T05:02:22.433Z,21.60
2019-04-07T05:03:22.355Z,22.90
2019-04-07T05:04:22.950Z,25.80
2019-04-07T05:05:23.213Z,25.80
2019-04-07T05:06:22.445Z,22.90
2019-04-07T05:07:22.980Z,22.40
2019-04-07T05:08:22.330Z,21.20
2019-04-07T05:09:24.348Z,22.70
2019-04-07T05:10:22.321Z,25.90
2019-04-07T05:11:22.269Z,22.50
2019-04-07T05:12:24.402Z,23.60
2019-04-07T05:13:22.476Z,22.30
2019-04-07T05:14:22.891Z,26.60
2019-04-07T05:15:22.833Z,26.50
2019-04-07T05:16:22.931Z,20.70
2019-04-07T05:17:22.259Z,23.50
2019-04-07T05:18:22.328Z,23.80
2019-04-07T05:20:23.948Z,24.60
2019-04-07T05:21:22.342Z,21.90
2019-04-07T05:22:22.559Z,24.10
2019-04-07T05:23:22.156Z,20.30
2019-04-07T05:24:22.262Z,23.70
2019-04-07T05:25:22.281Z,24.30
2019-04-07T05:26:22.350Z,21.00
2019-04-07T05:27:22.124Z,22.90
2019-04-07T05:28:22.085Z,25.10
2019-04-07T05:29:22.081Z,24.00
2019-04-07T05:30:22.554Z,23.80
2019-04-07T05:31:22.479Z,26.00
2019-04-07T05:32:22.307Z,26.80
2019-04-07T05:33:22.031Z,23.80
2019-04-07T05:34:22.435Z,21.80
2019-04-07T05:35:22.535Z,28.70
2019-04-07T05:36:22.357Z,22.80
2019-04-07T05:37:23.015Z,26.20
2019-04-07T05:38:22.361Z,22.00
2019-04-07T05:39:30.902Z,23.10
2019-04-07T05:40:21.983Z,22.70
2019-04-07T05:41:21.973Z,22.80
2019-04-07T05:42:22.540Z,22.00
2019-04-07T05:43:22.668Z,24.20
2019-04-07T05:44:21.929Z,25.90
2019-04-07T05:45:22.648Z,25.10
2019-04-07T05:46:21.956Z,24.80
2019-04-07T05:47:21.968Z,24.20
2019-04-07T05:48:21.928Z,25.30
2019-04-07T05:49:24.273Z,21.10
2019-04-07T05:50:22.296Z,24.10
2019-04-07T05:51:22.091Z,21.00
2019-04-07T05:52:21.864Z,26.30
2019-04-07T05:53:21.822Z,22.50
2019-04-07T05:54:22.478Z,24.10
2019-04-07T05:55:24.103Z,25.90
2019-04-07T05:56:25.896Z,23.80
2019-04-07T05:57:22.891Z,22.30
2019-04-07T05:58:22.183Z,22.20
2019-04-07T05:59:22.160Z,25.30
2019-04-07T06:00:21.885Z,24.30
2019-04-07T06:01:23.331Z,22.80
2019-04-07T06:02:22.293Z,24.60
2019-04-07T06:03:21.978Z,25.20
2019-04-07T06:04:21.802Z,23.60
2019-04-07T06:05:22.222Z,24.20
2019-04-07T06:06:22.567Z,21.80
2019-04-07T06:07:25.793Z,21.70
2019-04-07T06:08:30.321Z,23.70
2019-04-07T06:09:23.109Z,23.00
2019-04-07T06:10:24.331Z,22.10
2019-04-07T06:11:21.690Z,20.90
2019-04-07T06:12:21.639Z,28.10
2019-04-07T06:13:21.612Z,22.90
2019-04-07T06:14:21.625Z,22.90
2019-04-07T06:15:22.292Z,27.60
2019-04-07T06:16:22.492Z,24.00
2019-04-07T06:17:24.178Z,26.50
2019-04-07T06:18:21.558Z,24.60
2019-04-07T06:19:21.583Z,26.80
2019-04-07T06:20:21.519Z,23.60
2019-04-07T06:21:22.169Z,27.80
2019-04-07T06:22:22.042Z,26.60
2019-04-07T06:23:24.267Z,21.30
2019-04-07T06:24:22.473Z,24.20
2019-04-07T06:25:21.604Z,21.70
2019-04-07T06:26:22.236Z,25.20
2019-04-07T06:27:21.753Z,22.20
2019-04-07T06:28:21.470Z,23.70
2019-04-07T06:29:24.669Z,24.30
2019-04-07T06:30:22.080Z,24.70
2019-04-07T06:31:24.410Z,24.20
2019-04-07T06:32:21.888Z,25.50
2019-04-07T06:33:22.093Z,24.70
2019-04-07T06:34:21.603Z,24.80
2019-04-07T06:35:21.378Z,29.00
2019-04-07T06:36:21.365Z,24.00
2019-04-07T06:37:25.855Z,25.80
2019-04-07T06:38:31.199Z,24.50
2019-04-07T06:39:23.168Z,25.60
2019-04-07T06:40:22.191Z,25.30
2019-04-07T06:41:21.778Z,23.60
2019-04-07T06:43:22.368Z,24.60
2019-04-07T06:44:23.003Z,23.70
2019-04-07T06:45:22.779Z,25.70
2019-04-07T06:46:22.623Z,22.50
2019-04-07T06:47:22.265Z,25.30
2019-04-07T06:48:21.314Z,28.10
2019-04-07T06:49:21.957Z,24.10
2019-04-07T06:51:22.484Z,26.50
2019-04-07T06:52:21.444Z,24.20
2019-04-07T06:53:21.206Z,24.40
2019-04-07T06:54:22.232Z,23.20
2019-04-07T06:55:22.648Z,27.00
2019-04-07T06:56:21.130Z,24.30
2019-04-07T06:57:21.118Z,27.60
2019-04-07T06:58:21.707Z,24.60
2019-04-07T06:59:21.911Z,25.70
2019-04-07T07:00:23.839Z,24.00
2019-04-07T07:01:25.193Z,24.70
2019-04-07T07:02:22.462Z,23.20
2019-04-07T07:03:21.518Z,24.30
2019-04-07T07:04:21.171Z,27.50
2019-04-07T07:05:21.339Z,26.70
2019-04-07T07:06:21.040Z,26.60
2019-04-07T07:07:21.552Z,24.00
2019-04-07T07:08:21.962Z,22.20
2019-04-07T07:09:25.800Z,25.40
2019-04-07T07:10:29.017Z,24.60
2019-04-07T07:11:28.034Z,25.00
2019-04-07T07:12:28.311Z,22.60
2019-04-07T07:13:29.848Z,28.40
2019-04-07T07:14:32.894Z,26.50
2019-04-07T07:15:21.933Z,22.50
2019-04-07T07:16:21.730Z,23.50
2019-04-07T07:17:21.548Z,24.10
2019-04-07T07:18:22.932Z,24.60
2019-04-07T07:19:24.448Z,26.60
2019-04-07T07:20:21.984Z,24.40
2019-04-07T07:21:23.587Z,24.20
2019-04-07T07:22:20.857Z,27.00
2019-04-07T07:23:20.842Z,23.80
2019-04-07T07:24:24.950Z,24.10
2019-04-07T07:25:21.360Z,24.70
2019-04-07T07:26:21.744Z,24.70
2019-04-07T07:27:20.829Z,25.40
2019-04-07T07:28:21.223Z,25.10
2019-04-07T07:29:21.387Z,24.10
2019-04-07T07:30:21.382Z,26.30
2019-04-07T07:31:24.681Z,32.00
2019-04-07T07:32:21.358Z,25.10
2019-04-07T07:33:21.352Z,28.00
2019-04-07T07:34:21.143Z,24.50
2019-04-07T07:35:20.739Z,25.10
2019-04-07T07:36:22.500Z,24.80
2019-04-07T07:37:22.929Z,27.20
2019-04-07T07:38:21.338Z,27.50
2019-04-07T07:39:22.886Z,22.90
2019-04-07T07:40:21.132Z,25.80
2019-04-07T07:41:23.037Z,24.40
2019-04-07T07:42:23.288Z,26.90
2019-04-07T07:43:21.045Z,23.80
2019-04-07T07:44:23.485Z,24.20
2019-04-07T07:45:21.746Z,25.40
2019-04-07T07:46:22.579Z,24.60
2019-04-07T07:47:22.437Z,25.60
2019-04-07T07:48:24.856Z,22.00
2019-04-07T07:49:21.660Z,23.80
2019-04-07T07:50:20.833Z,24.00
2019-04-07T07:51:21.418Z,26.20
2019-04-07T07:52:21.835Z,22.30
2019-04-07T07:53:23.893Z,24.50
2019-04-07T07:54:21.833Z,22.50
2019-04-07T07:55:24.136Z,23.40
2019-04-07T07:56:21.439Z,29.60
2019-04-07T07:57:23.514Z,23.40
2019-04-07T07:58:20.496Z,23.30
2019-04-07T07:59:20.529Z,25.00
2019-04-07T08:00:21.019Z,24.10
2019-04-07T08:01:21.082Z,22.80
2019-04-07T08:02:20.826Z,23.10
2019-04-07T08:03:22.580Z,22.80
2019-04-07T08:04:20.736Z,24.50
2019-04-07T08:05:20.441Z,23.40
2019-04-07T08:06:20.549Z,23.20
2019-04-07T08:07:20.394Z,35.90
2019-04-07T08:08:21.201Z,27.50
2019-04-07T08:09:23.680Z,24.40
2019-04-07T08:10:21.287Z,43.50
2019-04-07T08:11:20.880Z,22.50
2019-04-07T08:12:20.647Z,35.00
2019-04-07T08:13:21.264Z,26.00
2019-04-07T08:14:20.302Z,25.90
2019-04-07T08:15:23.954Z,26.70
2019-04-07T08:16:21.659Z,27.20
2019-04-07T08:17:20.288Z,24.40
2019-04-07T08:18:21.019Z,22.50
2019-04-07T08:19:21.063Z,21.50
2019-04-07T08:20:20.313Z,26.20
2019-04-07T08:21:20.579Z,23.90
2019-04-07T08:22:27.299Z,25.10
2019-04-07T08:23:21.984Z,25.80
2019-04-07T08:24:20.774Z,23.40
2019-04-07T08:25:23.263Z,21.00
2019-04-07T08:26:23.909Z,22.10
2019-04-07T08:27:20.559Z,21.20
2019-04-07T08:28:20.868Z,20.20
2019-04-07T08:29:20.331Z,19.00
2019-04-07T08:30:20.134Z,21.90
2019-04-07T08:31:21.430Z,19.60
2019-04-07T08:32:24.257Z,19.60
2019-04-07T08:33:21.073Z,22.90
2019-04-07T08:34:20.062Z,18.90
2019-04-07T08:35:20.073Z,21.60
2019-04-07T08:36:20.041Z,18.80
2019-04-07T08:37:20.055Z,19.80
2019-04-07T08:38:24.803Z,19.00
2019-04-07T08:39:25.642Z,18.40
2019-04-07T08:40:21.328Z,21.00
2019-04-07T08:41:20.006Z,19.70
2019-04-07T08:42:20.798Z,18.30
2019-04-07T08:43:22.576Z,18.20
2019-04-07T08:44:20.481Z,19.50
2019-04-07T08:45:19.988Z,20.70
2019-04-07T08:46:20.085Z,19.30
2019-04-07T08:47:22.136Z,23.00
2019-04-07T08:48:20.856Z,22.10
2019-04-07T08:49:23.607Z,19.40
2019-04-07T08:50:21.532Z,21.00
2019-04-07T08:51:20.071Z,22.80
2019-04-07T08:52:19.878Z,19.00
2019-04-07T08:53:19.849Z,20.50
2019-04-07T08:54:20.001Z,19.60
2019-04-07T08:55:20.433Z,20.00
2019-04-07T08:56:19.827Z,18.30
2019-04-07T08:57:19.831Z,18.40
2019-04-07T08:58:26.413Z,21.00
2019-04-07T08:59:20.799Z,17.60
2019-04-07T09:00:20.267Z,20.20
2019-04-07T09:01:21.168Z,19.30
2019-04-07T09:02:22.433Z,18.20
2019-04-07T09:03:20.860Z,18.70
2019-04-07T09:04:19.733Z,19.60
2019-04-07T09:05:22.424Z,17.60
2019-04-07T09:06:20.800Z,18.50
2019-04-07T09:07:22.552Z,17.40
2019-04-07T09:08:20.403Z,17.30
2019-04-07T09:09:31.203Z,17.60
2019-04-07T09:10:21.719Z,18.90
2019-04-07T09:11:22.244Z,19.90
2019-04-07T09:12:19.660Z,20.40
2019-04-07T09:13:19.763Z,18.70
2019-04-07T09:14:20.279Z,19.30
2019-04-07T09:15:19.638Z,21.60
2019-04-07T09:16:20.022Z,18.00
2019-04-07T09:17:30.759Z,19.30
2019-04-07T09:18:20.596Z,21.30
2019-04-07T09:19:20.312Z,17.30
2019-04-07T09:20:20.046Z,16.70
2019-04-07T09:21:20.715Z,17.90
2019-04-07T09:22:22.697Z,19.50
2019-04-07T09:23:20.138Z,17.20
2019-04-07T09:24:19.593Z,19.40
2019-04-07T09:25:20.347Z,18.00
2019-04-07T09:26:21.728Z,17.40
2019-04-07T09:27:23.350Z,18.70
2019-04-07T09:28:21.201Z,19.40
2019-04-07T09:29:19.470Z,20.30
2019-04-07T09:30:19.671Z,16.50
2019-04-07T09:31:19.669Z,20.30
2019-04-07T09:32:19.424Z,17.30
2019-04-07T09:33:19.422Z,17.80
2019-04-07T09:34:21.164Z,18.40
2019-04-07T09:35:22.748Z,18.80
2019-04-07T09:36:19.457Z,16.10
2019-04-07T09:38:21.667Z,19.30
2019-04-07T09:39:20.231Z,16.50
2019-04-07T09:40:20.082Z,18.20
2019-04-07T09:41:23.141Z,19.00
2019-04-07T09:42:24.333Z,16.50
2019-04-07T09:43:20.314Z,17.00
2019-04-07T09:44:19.807Z,16.60
2019-04-07T09:45:19.589Z,18.20
2019-04-07T09:46:20.154Z,18.40
2019-04-07T09:47:19.636Z,16.30
2019-04-07T09:48:21.755Z,18.60
2019-04-07T09:49:21.257Z,17.70
2019-04-07T09:50:20.301Z,16.10
2019-04-07T09:51:19.722Z,15.80
2019-04-07T09:52:19.227Z,19.50
2019-04-07T09:53:19.700Z,15.20
2019-04-07T09:54:22.179Z,16.00
2019-04-07T09:55:19.178Z,17.50
2019-04-07T09:56:19.197Z,20.50
2019-04-07T09:57:20.050Z,14.60
2019-04-07T09:58:19.294Z,17.90
2019-04-07T09:59:19.545Z,13.80
2019-04-07T10:00:21.612Z,17.70
2019-04-07T10:01:20.741Z,14.20
2019-04-07T10:02:19.608Z,14.40
2019-04-07T10:03:19.284Z,15.20
2019-04-07T10:04:19.083Z,19.10
2019-04-07T10:05:19.093Z,18.10
2019-04-07T10:06:19.102Z,16.70
2019-04-07T10:07:19.342Z,15.30
2019-04-07T10:08:19.568Z,14.40
2019-04-07T10:09:19.689Z,14.70
2019-04-07T10:10:19.193Z,18.80
2019-04-07T10:11:19.710Z,16.60
2019-04-07T10:12:19.654Z,16.40
2019-04-07T10:13:18.986Z,16.20
2019-04-07T10:14:19.638Z,14.60
2019-04-07T10:15:18.985Z,16.70
2019-04-07T10:16:18.971Z,14.50
2019-04-07T10:17:18.930Z,15.30
2019-04-07T10:18:19.219Z,15.40
2019-04-07T10:19:18.919Z,14.80
2019-04-07T10:20:22.058Z,13.40
2019-04-07T10:21:19.613Z,14.10
2019-04-07T10:22:19.744Z,16.40
2019-04-07T10:23:19.615Z,16.30
2019-04-07T10:24:19.747Z,15.60
2019-04-07T10:25:18.852Z,14.20
2019-04-07T10:26:18.898Z,16.70
2019-04-07T10:27:18.840Z,14.20
2019-04-07T10:28:18.865Z,18.00
2019-04-07T10:29:18.852Z,14.10
2019-04-07T10:30:18.938Z,14.10
2019-04-07T10:31:20.794Z,13.00
2019-04-07T10:32:18.918Z,16.00
2019-04-07T10:33:19.064Z,15.50
2019-04-07T10:34:18.771Z,14.40
2019-04-07T10:35:19.013Z,17.90
2019-04-07T10:36:19.437Z,15.20
2019-04-07T10:37:18.900Z,15.30
2019-04-07T10:38:18.966Z,15.90
2019-04-07T10:39:18.721Z,15.30
2019-04-07T10:40:21.818Z,14.10
2019-04-07T10:41:18.712Z,15.60
2019-04-07T10:42:19.012Z,13.90
2019-04-07T10:43:18.650Z,15.50
2019-04-07T10:44:19.430Z,14.50
2019-04-07T10:45:18.660Z,15.50
2019-04-07T10:46:18.650Z,14.90
2019-04-07T10:47:19.298Z,18.60
2019-04-07T10:48:19.073Z,15.50
2019-04-07T10:49:19.139Z,15.20
2019-04-07T10:50:18.572Z,15.90
2019-04-07T10:51:18.586Z,18.40
2019-04-07T10:52:19.689Z,13.90
2019-04-07T10:53:19.467Z,14.60
2019-04-07T10:54:18.612Z,15.30
2019-04-07T10:55:18.513Z,16.70
2019-04-07T10:56:18.809Z,14.00
2019-04-07T10:57:18.879Z,14.70
2019-04-07T10:58:18.483Z,14.50
2019-04-07T10:59:18.487Z,14.60
2019-04-07T11:00:19.266Z,14.00
2019-04-07T11:01:19.519Z,13.60
2019-04-07T11:02:19.222Z,13.80
2019-04-07T11:03:18.608Z,15.00
2019-04-07T11:04:19.110Z,15.40
2019-04-07T11:05:18.630Z,14.00
2019-04-07T11:06:19.094Z,15.40
2019-04-07T11:07:18.978Z,14.50
2019-04-07T11:08:18.373Z,15.70
2019-04-07T11:09:18.367Z,15.60
2019-04-07T11:10:30.620Z,14.20
2019-04-07T11:11:20.195Z,14.70
2019-04-07T11:12:18.372Z,14.20
2019-04-07T11:13:18.585Z,16.00
2019-04-07T11:14:18.503Z,14.60
2019-04-07T11:15:18.458Z,13.90
2019-04-07T11:16:18.575Z,14.80
2019-04-07T11:17:18.274Z,13.70
2019-04-07T11:18:19.068Z,14.00
2019-04-07T11:19:18.273Z,14.70
2019-04-07T11:20:26.985Z,17.10
2019-04-07T11:21:18.244Z,14.30
2019-04-07T11:22:18.784Z,15.10
2019-04-07T11:23:18.229Z,15.10
2019-04-07T11:24:18.756Z,15.60
2019-04-07T11:25:18.358Z,16.00
2019-04-07T11:26:18.234Z,17.80
2019-04-07T11:27:19.047Z,16.70
2019-04-07T11:28:18.176Z,17.00
2019-04-07T11:29:18.153Z,17.70
2019-04-07T11:30:18.179Z,17.10
2019-04-07T11:31:18.846Z,17.60
2019-04-07T11:32:18.115Z,17.60
2019-04-07T11:33:18.295Z,16.00
2019-04-07T11:34:18.099Z,15.90
2019-04-07T11:35:18.207Z,16.70
2019-04-07T11:36:21.289Z,16.60
2019-04-07T11:37:18.910Z,16.90
2019-04-07T11:38:19.695Z,15.40
2019-04-07T11:39:18.844Z,16.50
2019-04-07T11:40:18.232Z,16.60
2019-04-07T11:41:21.608Z,15.40
2019-04-07T11:42:19.704Z,15.60
2019-04-07T11:43:18.015Z,16.30
2019-04-07T11:44:20.194Z,15.00
2019-04-07T11:45:17.999Z,15.00
2019-04-07T11:46:18.757Z,14.60
2019-04-07T11:47:18.590Z,15.70
2019-04-07T11:48:18.042Z,15.80
2019-04-07T11:49:18.241Z,14.80
2019-04-07T11:50:18.829Z,16.10
2019-04-07T11:51:18.472Z,15.10
2019-04-07T11:52:18.007Z,16.00
2019-04-07T11:53:17.900Z,15.00
2019-04-07T11:54:18.252Z,15.00
2019-04-07T11:55:18.432Z,14.90
2019-04-07T11:56:17.899Z,15.80
2019-04-07T11:57:17.900Z,16.50
2019-04-07T11:58:25.523Z,16.50
2019-04-07T11:59:20.322Z,15.10
2019-04-07T12:00:18.402Z,15.10
2019-04-07T12:01:18.610Z,14.20
2019-04-07T12:02:19.776Z,16.60
2019-04-07T12:03:18.223Z,14.90
2019-04-07T12:04:18.524Z,14.60
2019-04-07T12:05:17.794Z,15.40
2019-04-07T12:06:18.135Z,15.20
2019-04-07T12:07:20.201Z,15.20
2019-04-07T12:08:17.749Z,15.00
2019-04-07T12:09:17.747Z,15.20
2019-04-07T12:10:17.930Z,15.10
2019-04-07T12:11:18.025Z,16.70
2019-04-07T12:12:18.230Z,15.00
2019-04-07T12:13:17.707Z,14.50
2019-04-07T12:14:18.081Z,14.40
2019-04-07T12:15:21.965Z,14.80
2019-04-07T12:16:18.692Z,15.60
2019-04-07T12:17:17.794Z,14.90
2019-04-07T12:18:18.974Z,14.60
2019-04-07T12:19:18.493Z,14.90
2019-04-07T12:20:17.670Z,15.50
2019-04-07T12:21:22.636Z,15.60
2019-04-07T12:22:18.770Z,15.50
2019-04-07T12:23:22.860Z,15.30
2019-04-07T12:27:13.825Z,12.90
2019-04-07T12:28:17.596Z,14.90
2019-04-07T12:30:45.235Z,16.50
2019-04-07T12:31:24.907Z,17.30
2019-04-07T12:32:26.104Z,17.20
2019-04-07T12:33:24.066Z,16.70
2019-04-07T12:34:26.485Z,15.00
2019-04-07T12:36:34.431Z,14.90
2019-04-07T12:37:38.026Z,15.10
2019-04-07T12:38:35.034Z,15.00
2019-04-07T12:39:34.997Z,14.00
2019-04-07T12:40:34.292Z,16.00
2019-04-07T12:41:34.707Z,15.20
2019-04-07T12:42:35.723Z,15.40
2019-04-07T12:43:34.050Z,18.30
2019-04-07T12:44:34.273Z,17.20
2019-04-07T12:45:35.805Z,14.80
2019-04-07T12:46:34.551Z,14.40
2019-04-07T12:48:36.056Z,13.70
2019-04-07T12:49:35.198Z,13.70
2019-04-07T12:50:33.888Z,14.20
2019-04-07T12:51:33.962Z,16.60
2019-04-07T12:52:33.834Z,14.60
2019-04-07T12:53:36.225Z,13.90
2019-04-07T12:54:34.213Z,14.00
2019-04-07T12:55:33.994Z,14.20
2019-04-07T12:56:34.297Z,15.00
2019-04-07T12:57:37.694Z,14.70
2019-04-07T12:58:35.559Z,14.40
2019-04-07T12:59:34.676Z,13.80
2019-04-07T13:00:44.682Z,14.20
2019-04-07T13:01:34.753Z,13.90
2019-04-07T13:02:33.829Z,13.80
2019-04-07T13:03:34.452Z,13.90
2019-04-07T13:04:34.283Z,15.10
2019-04-07T13:05:35.484Z,14.80